Mount Tabor, North Carolina
Current Conditions -  °F | °C
As of 7:15 AM on Monday 24 Nov 2014 (Local Time) from KINT Reporting Station
Scattered Clouds Scattered Clouds  
Wind Chill: 59°   Ceiling: Unl
Heat Index: 59°   Visibility: 10mi
Dew Point: 53°   Wind: 9mph
Humidity: 81%   Direction: 210°SSW
Pressure: 29.76"   Gusts: NA
Location:  36.1422°N, 80.3221°W
Report Text: KINT 241215Z 21008KT 10SM SCT019 15/12 A2976 RMK AO2 T01500117
Loading
Personal Weather Stations






























Interactive Weather Map New forecast layout! Learn more

10-Day Weather Forecast

Advertisements
Track Severe Weather on mobile